Lilongwe, Malawi
Current Conditions -  °F | °C
As of 7:00 PM on Saturday 25 Oct 2014 (Local Time) from FQLC Reporting Station
Few Clouds Few Clouds  
Wind Chill: 77°   Ceiling: Unl
Heat Index: 79°   Visibility: 6mi
Dew Point: 55°   Wind: 6mph
Humidity: 47%   Direction: 170°S
Pressure: 30.09"   Gusts: NA
Location:  13.97°S, 33.8°E
Report Text: FQLC 251700Z 17005KT 9999 FEW025 25/13 Q1019
Loading
Personal Weather Stations






























Interactive Weather Map New forecast layout! Learn more

10-Day Weather Forecast

Advertisements
Track Severe Weather on mobile